Time;durP1;ratioP1;P1;durP2;ratioP2;P2;SDS_P1;SDS_P2;PMS_P1;PMS_P2;Temp;Humidity;BMP_temperature;BMP_pressure;BME280_temperature;BME280_humidity;BME280_pressure;Samples;Min_cycle;Max_cycle;Signal;HPM_P1;HPM_P2
2021/04/01 00:01:28;;;;;;;16.08;5.43;;;14.00;90.80;;;;;;6169072;23;20005;-80
2021/04/01 00:03:53;;;;;;;13.18;5.20;;;14.00;91.10;;;;;;6164777;23;20005;-78
2021/04/01 00:06:19;;;;;;;14.90;5.78;;;14.00;91.20;;;;;;6166789;23;20032;-81
2021/04/01 00:08:44;;;;;;;14.77;5.03;;;14.00;91.60;;;;;;6194945;23;20001;-82
2021/04/01 00:11:11;;;;;;;13.30;4.82;;;14.00;92.00;;;;;;6166288;23;20001;-82
2021/04/01 00:13:37;;;;;;;12.73;4.57;;;14.00;91.80;;;;;;6167075;23;20001;-83
2021/04/01 00:16:04;;;;;;;11.35;4.57;;;14.00;92.00;;;;;;6167210;23;20028;-82
2021/04/01 00:18:30;;;;;;;10.52;4.50;;;14.00;92.20;;;;;;6167092;23;20001;-83
2021/04/01 00:20:55;;;;;;;13.65;4.68;;;13.90;91.50;;;;;;6193200;23;20012;-82
2021/04/01 00:23:21;;;;;;;11.70;4.90;;;13.90;91.20;;;;;;6195624;23;20079;-82
2021/04/01 00:25:46;;;;;;;9.55;4.25;;;13.90;91.00;;;;;;6168820;23;20046;-81
2021/04/01 00:28:12;;;;;;;13.80;4.22;;;15.30;91.10;;;;;;6168548;23;20063;-81
2021/04/01 00:30:38;;;;;;;12.10;4.38;;;13.80;90.60;;;;;;6195526;23;19998;-81
2021/04/01 00:33:04;;;;;;;12.95;5.03;;;13.80;90.50;;;;;;6168587;23;20336;-81
2021/04/01 00:35:29;;;;;;;11.88;4.28;;;13.80;91.00;;;;;;6169157;23;20001;-81
2021/04/01 00:37:55;;;;;;;12.27;4.05;;;13.70;91.20;;;;;;6169458;23;20008;-81
2021/04/01 00:40:22;;;;;;;11.88;4.30;;;13.70;91.50;;;;;;6169545;23;20020;-81
2021/04/01 00:42:48;;;;;;;12.98;4.72;;;13.70;91.30;;;;;;6196098;23;20005;-81
2021/04/01 00:45:14;;;;;;;15.13;5.07;;;13.70;90.60;;;;;;6169320;23;20012;-80
2021/04/01 00:47:46;;;;;;;13.48;5.22;;;13.70;88.70;;;;;;6168293;23;20001;-80
2021/04/01 00:50:15;;;;;;;15.85;5.68;;;13.70;88.00;;;;;;6193838;23;20119;-79
2021/04/01 00:52:41;;;;;;;13.68;4.95;;;13.60;87.40;;;;;;6192770;23;20362;-80
2021/04/01 00:55:08;;;;;;;16.02;4.82;;;13.60;88.00;;;;;;6167458;23;20009;-80
2021/04/01 00:57:36;;;;;;;18.45;5.57;;;13.60;88.60;;;;;;6164495;23;20571;-77
2021/04/01 01:00:07;;;;;;;17.83;6.07;;;13.50;89.30;;;;;;6192782;23;20341;-80
2021/04/01 01:02:32;;;;;;;17.73;6.22;;;13.50;88.10;;;;;;6167548;23;20015;-80
2021/04/01 01:04:58;;;;;;;15.30;5.60;;;13.50;87.20;;;;;;6195166;23;20383;-80
2021/04/01 01:07:24;;;;;;;17.25;6.43;;;13.50;87.30;;;;;;6169151;23;20005;-81
2021/04/01 01:09:49;;;;;;;13.52;5.10;;;13.50;87.40;;;;;;6191828;23;19997;-79
2021/04/01 01:12:15;;;;;;;18.42;6.07;;;13.50;86.90;;;;;;6167739;23;20027;-81
2021/04/01 01:14:40;;;;;;;14.90;5.72;;;13.50;86.70;;;;;;6192166;23;20467;-80
2021/04/01 01:17:06;;;;;;;13.13;4.93;;;13.50;87.00;;;;;;6169080;23;20025;-80
2021/04/01 01:19:40;;;;;;;16.67;6.03;;;15.80;90.10;;;;;;6166456;23;20048;-80
2021/04/01 01:22:07;;;;;;;19.13;7.13;;;13.50;90.60;;;;;;6191398;23;20001;-78
2021/04/01 01:24:33;;;;;;;15.45;5.63;;;13.50;91.20;;;;;;6169688;23;20000;-80
2021/04/01 01:27:01;;;;;;;17.75;7.03;;;13.50;91.30;;;;;;6166477;23;20058;-80
2021/04/01 01:29:27;;;;;;;19.45;7.03;;;13.40;91.30;;;;;;6193821;23;20001;-80
2021/04/01 01:31:52;;;;;;;20.90;7.20;;;13.50;91.80;;;;;;6167740;23;20075;-79
2021/04/01 01:34:18;;;;;;;16.25;7.03;;;13.40;92.70;;;;;;6193493;23;20004;-80
2021/04/01 01:36:44;;;;;;;15.25;5.93;;;13.40;93.60;;;;;;6194092;23;20000;-79
2021/04/01 01:39:10;;;;;;;16.98;6.65;;;13.40;94.10;;;;;;6167067;23;20016;-78
2021/04/01 01:41:36;;;;;;;20.65;7.85;;;13.40;94.20;;;;;;6169097;23;20079;-79
2021/04/01 01:44:02;;;;;;;19.48;6.70;;;13.40;94.00;;;;;;6191543;23;20005;-79
2021/04/01 01:46:27;;;;;;;21.23;7.53;;;13.30;92.70;;;;;;6195736;23;20001;-80
2021/04/01 01:48:56;;;;;;;22.10;8.20;;;13.30;93.70;;;;;;6194302;23;20011;-81
2021/04/01 01:51:22;;;;;;;21.27;7.93;;;13.30;93.40;;;;;;6193212;23;20029;-80
2021/04/01 01:53:47;;;;;;;22.88;8.20;;;13.20;93.60;;;;;;6166646;23;20004;-80
2021/04/01 01:56:19;;;;;;;20.35;7.47;;;13.90;93.90;;;;;;6166816;23;20001;-80
2021/04/01 01:58:45;;;;;;;28.88;8.88;;;13.20;93.70;;;;;;6191477;23;20001;-80
2021/04/01 02:01:11;;;;;;;24.25;9.25;;;13.20;93.20;;;;;;6167162;23;20016;-81
2021/04/01 02:03:36;;;;;;;26.05;9.70;;;13.10;93.50;;;;;;6196197;23;20028;-79
2021/04/01 02:06:03;;;;;;;25.83;9.48;;;13.10;93.10;;;;;;6193733;23;20472;-80
2021/04/01 02:08:28;;;;;;;21.92;9.05;;;13.00;93.60;;;;;;6166373;23;20001;-80
2021/04/01 02:10:54;;;;;;;27.63;10.18;;;13.00;93.40;;;;;;6166161;23;20023;-78
2021/04/01 02:13:22;;;;;;;25.23;9.60;;;12.90;94.00;;;;;;6165146;23;20031;-81
2021/04/01 02:15:50;;;;;;;25.58;10.43;;;12.80;94.70;;;;;;6167006;23;20040;-81
2021/04/01 02:18:18;;;;;;;27.33;9.70;;;12.80;96.80;;;;;;6163551;23;20401;-80
2021/04/01 02:20:47;;;;;;;22.70;9.70;;;12.70;96.60;;;;;;6165372;23;20005;-82
2021/04/01 02:23:25;;;;;;;29.70;9.75;;;12.60;97.00;;;;;;6166357;23;20232;-78
2021/04/01 02:25:53;;;;;;;23.60;8.63;;;12.50;98.00;;;;;;6193051;23;20340;-81
2021/04/01 02:28:21;;;;;;;24.42;9.75;;;12.50;98.80;;;;;;6195003;23;20078;-80
2021/04/01 02:30:48;;;;;;;32.58;10.43;;;12.40;99.00;;;;;;6164544;23;19997;-81
2021/04/01 02:33:15;;;;;;;27.98;9.85;;;12.30;99.30;;;;;;6164966;23;20013;-79
2021/04/01 02:35:41;;;;;;;29.60;10.30;;;12.20;99.90;;;;;;6191965;23;20448;-81
2021/04/01 02:38:07;;;;;;;23.40;9.68;;;12.00;99.90;;;;;;6191134;23;20005;-81
2021/04/01 02:40:35;;;;;;;23.23;8.85;;;12.00;99.90;;;;;;6195911;23;20020;-82
2021/04/01 02:43:00;;;;;;;30.15;9.68;;;11.90;99.90;;;;;;6193651;23;20025;-80
2021/04/01 02:45:26;;;;;;;27.92;10.93;;;11.90;99.90;;;;;;6192789;23;20001;-81
2021/04/01 02:47:52;;;;;;;25.48;10.70;;;14.10;99.90;;;;;;6166090;23;20012;-80
2021/04/01 02:50:18;;;;;;;29.58;11.13;;;11.70;99.90;;;;;;6164894;23;20001;-78
2021/04/01 02:52:44;;;;;;;31.02;11.10;;;11.70;99.90;;;;;;6165985;23;20001;-80
2021/04/01 02:55:11;;;;;;;33.72;10.93;;;11.70;99.90;;;;;;6167513;23;20012;-81
2021/04/01 02:57:37;;;;;;;33.55;11.07;;;11.60;99.90;;;;;;6194620;23;20004;-80
2021/04/01 03:00:10;;;;;;;30.35;11.00;;;12.80;99.90;;;;;;6192762;23;20005;-80
2021/04/01 03:02:43;;;;;;;28.98;11.55;;;11.60;99.90;;;;;;6164514;23;20005;-77
2021/04/01 03:05:11;;;;;;;29.70;12.02;;;11.50;99.90;;;;;;6167931;23;20088;-79
2021/04/01 03:07:37;;;;;;;27.05;9.63;;;11.40;99.90;;;;;;6164720;23;20008;-81
2021/04/01 03:10:08;;;;;;;27.20;11.48;;;11.40;99.90;;;;;;6164514;23;20004;-79
2021/04/01 03:12:33;;;;;;;29.02;11.20;;;11.30;99.90;;;;;;6191350;23;19997;-81
2021/04/01 03:14:59;;;;;;;30.33;11.00;;;11.20;99.90;;;;;;6192904;23;20429;-80
2021/04/01 03:17:24;;;;;;;30.25;11.07;;;11.20;99.90;;;;;;6167493;23;20440;-79
2021/04/01 03:19:50;;;;;;;35.17;11.90;;;11.20;99.90;;;;;;6161621;23;20437;-78
2021/04/01 03:22:15;;;;;;;34.00;12.88;;;11.10;99.90;;;;;;6159649;23;20005;-78
2021/04/01 03:24:41;;;;;;;31.42;11.20;;;11.10;99.90;;;;;;6186312;23;20020;-77
2021/04/01 03:27:07;;;;;;;28.92;11.77;;;11.10;99.90;;;;;;6185760;23;20004;-77
2021/04/01 03:29:33;;;;;;;29.63;11.40;;;11.10;99.90;;;;;;6185952;23;20001;-77
2021/04/01 03:31:59;;;;;;;34.10;12.65;;;11.00;99.90;;;;;;6159547;23;20135;-77
2021/04/01 03:34:25;;;;;;;35.03;13.48;;;11.00;99.90;;;;;;6186156;23;20005;-77
2021/04/01 03:36:50;;;;;;;33.22;12.32;;;11.00;99.90;;;;;;6185763;23;19997;-77
2021/04/01 03:39:16;;;;;;;31.67;12.50;;;10.90;99.90;;;;;;6159288;23;20005;-77
2021/04/01 03:41:42;;;;;;;35.15;12.25;;;10.90;99.90;;;;;;6159539;23;20490;-77
2021/04/01 03:44:08;;;;;;;37.15;14.63;;;10.80;99.90;;;;;;6185556;23;20007;-77
2021/04/01 03:46:35;;;;;;;34.90;12.98;;;10.80;99.90;;;;;;6160747;23;20001;-78
2021/04/01 03:49:03;;;;;;;35.78;13.40;;;10.80;99.90;;;;;;6141565;22;596802;-77
2021/04/01 03:51:29;;;;;;;34.95;12.90;;;10.30;99.90;;;;;;6186074;23;20008;-78
2021/04/01 03:53:55;;;;;;;32.78;12.48;;;10.70;99.90;;;;;;6164208;23;20340;-81
2021/04/01 03:56:21;;;;;;;28.33;11.52;;;12.50;99.90;;;;;;6165906;23;20375;-78
2021/04/01 03:59:06;;;;;;;36.08;12.85;;;10.70;99.90;;;;;;6161861;23;19997;-81
2021/04/01 04:04:06;;;;;;;35.15;12.63;;;10.60;99.90;;;;;;6188288;23;20016;-78
2021/04/01 04:12:29;;;;;;;37.47;13.93;;;10.40;99.90;;;;;;6185750;23;20016;-80
2021/04/01 04:15:07;;;;;;;38.65;13.05;;;10.30;99.90;;;;;;6162307;23;20029;-78
2021/04/01 04:17:33;;;;;;;40.65;13.07;;;10.30;99.90;;;;;;6189562;23;20001;-79
2021/04/01 04:19:59;;;;;;;37.22;13.27;;;10.30;99.90;;;;;;6164746;23;20001;-79
2021/04/01 04:22:25;;;;;;;39.53;14.85;;;10.30;99.90;;;;;;6187762;23;20005;-76
2021/04/01 04:24:52;;;;;;;37.53;12.38;;;10.30;99.90;;;;;;6163590;23;20017;-80
2021/04/01 04:30:07;;;;;;;41.40;14.40;;;10.20;99.90;;;;;;6144365;23;20087;-77
2021/04/01 04:32:35;;;;;;;38.45;13.70;;;10.20;99.90;;;;;;6185577;23;20001;-77
2021/04/01 04:35:02;;;;;;;48.20;14.45;;;10.20;99.90;;;;;;6159500;23;20016;-77
2021/04/01 04:37:28;;;;;;;42.13;12.82;;;10.10;99.90;;;;;;6185483;23;20001;-78
2021/04/01 04:39:54;;;;;;;34.28;12.35;;;10.10;99.90;;;;;;6159222;23;20005;-78
2021/04/01 04:42:20;;;;;;;41.50;14.07;;;10.10;99.90;;;;;;6159568;23;20012;-77
2021/04/01 04:44:46;;;;;;;39.10;13.25;;;10.00;99.90;;;;;;6159400;23;20476;-78
2021/04/01 04:47:11;;;;;;;32.22;12.65;;;10.00;99.90;;;;;;6159559;23;20025;-77
2021/04/01 04:49:37;;;;;;;45.60;13.88;;;10.00;99.90;;;;;;6159107;23;20062;-76
2021/04/01 04:52:03;;;;;;;41.55;14.48;;;10.00;99.90;;;;;;6185469;23;20005;-76
2021/04/01 04:54:30;;;;;;;44.03;14.70;;;10.00;99.90;;;;;;6185370;23;19997;-76
2021/04/01 04:56:58;;;;;;;45.75;15.32;;;9.90;99.90;;;;;;6185930;23;20328;-76
2021/04/01 04:59:37;;;;;;;38.67;13.25;;;9.90;99.90;;;;;;6187097;23;20005;-76
2021/04/01 05:04:52;;;;;;;44.55;13.93;;;9.80;99.90;;;;;;6191834;23;20063;-79
2021/04/01 05:07:18;;;;;;;42.38;14.70;;;9.70;99.90;;;;;;6189905;23;20008;-79
2021/04/01 05:09:43;;;;;;;41.35;14.75;;;9.70;99.90;;;;;;6163924;23;20395;-78
2021/04/01 05:12:09;;;;;;;35.80;13.48;;;9.60;99.90;;;;;;6191429;23;20001;-79
2021/04/01 05:14:35;;;;;;;45.95;14.35;;;9.60;99.90;;;;;;6166439;23;20003;-81
2021/04/01 05:17:00;;;;;;;38.30;14.27;;;9.60;99.90;;;;;;6164181;23;20005;-81
2021/04/01 05:19:27;;;;;;;54.30;16.55;;;9.50;99.90;;;;;;6167290;23;20004;-80
2021/04/01 05:21:59;;;;;;;40.20;14.57;;;9.50;99.90;;;;;;6165180;23;20001;-79
2021/04/01 05:24:27;;;;;;;48.17;15.60;;;9.50;99.90;;;;;;6166448;23;20007;-81
2021/04/01 05:27:08;;;;;;;52.10;14.73;;;9.50;99.90;;;;;;6189324;23;20009;-77
2021/04/01 05:29:36;;;;;;;54.60;17.05;;;9.50;99.90;;;;;;6164044;23;20036;-81
2021/04/01 05:32:03;;;;;;;55.05;16.55;;;9.50;99.90;;;;;;6165944;23;20001;-79
2021/04/01 05:34:29;;;;;;;51.50;15.48;;;9.50;99.90;;;;;;6192260;23;20047;-80
2021/04/01 05:36:56;;;;;;;38.47;13.27;;;9.50;99.90;;;;;;6165421;23;20001;-81
2021/04/01 05:39:35;;;;;;;45.92;14.80;;;9.50;99.90;;;;;;6163993;23;20005;-79
2021/04/01 05:42:02;;;;;;;46.55;15.50;;;9.50;99.90;;;;;;6189097;23;20484;-74
2021/04/01 05:44:38;;;;;;;53.13;18.17;;;9.50;99.90;;;;;;6161378;23;20001;-73
2021/04/01 05:47:18;;;;;;;52.90;19.05;;;9.60;99.90;;;;;;6161490;23;20021;-74
2021/04/01 05:52:56;;;;;;;58.55;20.23;;;9.50;99.90;;;;;;6188148;23;20012;-73
2021/04/01 06:03:38;;;;;;;72.78;24.73;;;10.40;99.90;;;;;;6188359;23;20013;-76
2021/04/01 06:06:07;;;;;;;68.70;26.38;;;10.20;99.90;;;;;;6190261;23;20059;-78
2021/04/01 06:08:48;;;;;;;80.97;26.75;;;10.30;99.90;;;;;;6164626;23;20434;-79
2021/04/01 06:11:16;;;;;;;70.97;24.88;;;10.40;99.90;;;;;;6161590;23;20055;-75
2021/04/01 06:14:13;;;;;;;83.70;27.73;;;10.40;99.90;;;;;;6161729;23;20001;-75
2021/04/01 06:16:40;;;;;;;80.00;28.13;;;10.50;99.90;;;;;;6189321;23;20004;-74
2021/04/01 06:19:09;;;;;;;84.78;28.02;;;10.50;99.90;;;;;;6162201;23;20383;-75
2021/04/01 06:21:45;;;;;;;84.07;28.38;;;10.60;99.90;;;;;;6187862;23;20096;-75
2021/04/01 06:24:24;;;;;;;83.38;29.30;;;10.60;99.90;;;;;;6187652;23;20009;-75
2021/04/01 06:27:15;;;;;;;74.05;28.85;;;10.70;99.90;;;;;;6161344;23;20400;-75
2021/04/01 06:30:36;;;;;;;80.30;28.95;;;10.70;99.90;;;;;;6186310;22;20025;-76
2021/04/01 06:32:32;;;;;;;86.53;30.83;;;11.20;99.90;;;;;;6158608;23;20013;-73
2021/04/01 06:35:08;;;;;;;89.35;32.92;;;10.80;99.90;;;;;;6188201;23;20005;-73
2021/04/01 06:37:59;;;;;;;89.72;32.15;;;10.90;99.90;;;;;;6186084;23;20017;-75
2021/04/01 06:40:25;;;;;;;93.93;33.78;;;13.00;99.90;;;;;;6162157;23;20001;-76
2021/04/01 06:42:59;;;;;;;97.00;35.50;;;11.00;99.90;;;;;;6189317;23;20463;-76
2021/04/01 06:45:29;;;;;;;89.35;35.40;;;11.10;99.90;;;;;;6161699;23;20047;-76
2021/04/01 06:47:56;;;;;;;88.25;33.97;;;11.10;99.90;;;;;;6162394;23;20092;-76
2021/04/01 06:50:41;;;;;;;92.13;33.65;;;11.10;99.90;;;;;;6188264;23;20004;-76
2021/04/01 06:53:27;;;;;;;86.88;34.58;;;11.60;99.90;;;;;;6161957;23;20009;-76
2021/04/01 06:56:07;;;;;;;88.57;34.67;;;11.30;99.90;;;;;;6162288;23;20002;-76
2021/04/01 06:58:53;;;;;;;97.53;37.40;;;12.40;99.90;;;;;;6161997;23;20000;-76
2021/04/01 07:01:41;;;;;;;90.32;36.17;;;11.40;99.90;;;;;;6188287;23;20341;-76
2021/04/01 07:04:10;;;;;;;86.70;35.17;;;11.50;99.90;;;;;;6161781;23;20036;-76
2021/04/01 07:06:38;;;;;;;;;;;11.60;99.90;;;;;;6161790;23;20005;-76
2021/04/01 07:12:18;;;;;;;102.38;39.15;;;11.70;99.90;;;;;;6198474;23;20417;-75
2021/04/01 07:14:48;;;;;;;105.00;37.95;;;11.70;99.90;;;;;;6187543;23;20337;-76
2021/04/01 07:17:23;;;;;;;92.63;36.47;;;11.70;99.90;;;;;;6188046;22;20017;-76
2021/04/01 07:22:51;;;;;;;91.35;35.10;;;11.70;99.90;;;;;;6189379;23;20092;-73
2021/04/01 07:30:59;;;;;;;94.88;35.92;;;11.80;99.90;;;;;;6187766;23;20012;-73
2021/04/01 07:47:26;;;;;;;88.03;35.45;;;12.00;99.90;;;;;;6185938;23;20027;-72
2021/04/01 07:49:54;;;;;;;93.18;36.97;;;12.10;99.90;;;;;;6186058;23;20001;-73
2021/04/01 07:52:24;;;;;;;88.35;34.05;;;12.00;99.90;;;;;;6185741;23;20451;-73
2021/04/01 07:57:42;;;;;;;93.78;34.85;;;12.00;99.90;;;;;;6185975;23;20087;-73
2021/04/01 08:03:52;;;;;;;90.72;36.15;;;12.10;99.90;;;;;;6186573;23;20019;-73
2021/04/01 08:05:33;;;;;;;85.13;32.42;;;12.10;99.90;;;;;;6173956;23;20013;-73
2021/04/01 08:08:02;;;;;;;96.38;35.47;;;12.20;99.90;;;;;;6160399;23;20460;-73
2021/04/01 08:10:39;;;;;;;86.80;31.77;;;12.30;99.90;;;;;;6160812;23;20143;-77
2021/04/01 08:13:08;;;;;;;85.35;30.88;;;12.40;99.90;;;;;;6160136;23;20004;-77
2021/04/01 08:15:38;;;;;;;83.80;32.25;;;12.50;99.90;;;;;;6159797;23;20009;-76
2021/04/01 08:18:17;;;;;;;87.82;32.08;;;12.50;99.90;;;;;;6186507;23;20478;-76
2021/04/01 08:20:45;;;;;;;81.53;29.38;;;12.70;99.90;;;;;;6186602;23;20064;-73
2021/04/01 08:23:17;;;;;;;73.25;29.08;;;12.70;99.90;;;;;;6161032;23;20005;-76
2021/04/01 08:28:31;;;;;;;75.05;27.67;;;12.90;99.90;;;;;;6190780;22;20349;-76
2021/04/01 08:35:59;;;;;;;65.85;26.00;;;13.10;99.90;;;;;;6191164;23;20019;-76
2021/04/01 08:38:25;;;;;;;60.53;24.92;;;13.10;99.10;;;;;;6164263;23;20005;-73
2021/04/01 08:40:52;;;;;;;60.80;24.83;;;13.10;99.60;;;;;;6189016;23;20024;-81
2021/04/01 08:43:53;;;;;;;65.10;25.83;;;13.70;99.90;;;;;;6188709;23;20008;-78
2021/04/01 08:46:41;;;;;;;59.72;22.88;;;13.30;99.50;;;;;;6161327;23;20039;-77
2021/04/01 08:49:22;;;;;;;60.60;22.23;;;13.30;98.90;;;;;;6188634;23;20421;-76
2021/04/01 08:52:15;;;;;;;50.33;20.98;;;13.40;98.30;;;;;;6187523;22;20028;-74
2021/04/01 08:55:09;;;;;;;48.15;18.08;;;13.40;98.00;;;;;;6188198;23;20329;-74
2021/04/01 08:58:08;;;;;;;46.88;18.90;;;13.50;97.20;;;;;;6133881;23;20448;-75
2021/04/01 09:00:36;;;;;;;45.40;16.45;;;13.60;97.40;;;;;;6159509;23;20001;-75
2021/04/01 09:03:04;;;;;;;38.22;13.13;;;13.70;97.40;;;;;;6132531;23;20008;-72
2021/04/01 09:05:30;;;;;;;33.43;12.57;;;13.70;95.50;;;;;;6158391;23;20341;-80
2021/04/01 09:08:02;;;;;;;25.45;9.23;;;13.70;94.80;;;;;;6132489;23;20006;-75
2021/04/01 09:10:39;;;;;;;25.95;9.00;;;13.80;94.10;;;;;;6132929;23;20341;-75
2021/04/01 09:13:17;;;;;;;22.42;9.30;;;13.90;92.20;;;;;;6159052;23;20001;-73
2021/04/01 09:18:29;;;;;;;25.20;8.30;;;14.00;92.40;;;;;;6160954;23;20013;-76
2021/04/01 09:21:01;;;;;;;19.95;7.25;;;14.00;91.10;;;;;;6134900;23;20009;-81
2021/04/01 09:23:44;;;;;;;17.65;5.93;;;14.10;90.30;;;;;;6132154;23;20340;-76
2021/04/01 09:26:11;;;;;;;19.33;5.82;;;14.20;86.70;;;;;;6158374;23;20010;-76
2021/04/01 09:28:39;;;;;;;14.05;4.80;;;14.20;86.90;;;;;;6158041;23;19998;-76
2021/04/01 09:31:06;;;;;;;15.15;3.53;;;14.30;83.70;;;;;;6133036;23;20395;-81
2021/04/01 09:33:35;;;;;;;13.65;3.95;;;14.40;83.40;;;;;;6158860;23;20310;-76
2021/04/01 09:36:11;;;;;;;;;;;14.30;82.80;;;;;;6132779;23;20006;-76
2021/04/01 09:38:42;;;;;;;12.85;2.15;;;14.30;81.20;;;;;;6157817;23;19901;-76
2021/04/01 09:41:11;;;;;;;10.23;2.55;;;14.40;78.10;;;;;;6133891;23;20024;-75
2021/04/01 09:43:48;;;;;;;;;;;14.40;78.90;;;;;;6133756;23;20033;-76
2021/04/01 09:46:14;;;;;;;10.23;1.85;;;14.40;78.00;;;;;;6133722;23;19905;-77
2021/04/01 09:48:46;;;;;;;6.22;1.67;;;14.50;78.30;;;;;;6134582;23;20035;-76
2021/04/01 09:51:22;;;;;;;8.98;2.20;;;14.50;78.20;;;;;;6158566;23;20010;-77
2021/04/01 09:53:54;;;;;;;10.20;0.95;;;14.60;78.50;;;;;;6158372;23;20368;-76
2021/04/01 09:56:22;;;;;;;8.25;0.60;;;14.80;76.40;;;;;;6132834;23;20086;-76
2021/04/01 09:58:51;;;;;;;6.65;0.38;;;14.90;76.50;;;;;;6131995;23;20010;-76
2021/04/01 10:01:35;;;;;;;8.10;0.40;;;15.00;76.10;;;;;;6158314;23;20006;-76
2021/04/01 10:04:05;;;;;;;3.67;0.50;;;15.10;74.60;;;;;;6158170;23;20513;-76
2021/04/01 10:06:50;;;;;;;7.38;0.38;;;15.00;73.80;;;;;;6155866;23;20009;-76
2021/04/01 10:09:22;;;;;;;5.35;0.28;;;15.00;74.70;;;;;;6160342;23;20068;-76
2021/04/01 10:11:53;;;;;;;7.13;0.45;;;14.90;74.50;;;;;;6157980;23;20002;-76
2021/04/01 10:14:22;;;;;;;4.57;0.25;;;15.00;76.60;;;;;;6156711;23;20063;-76
2021/04/01 10:17:00;;;;;;;6.80;0.47;;;15.10;75.10;;;;;;6178299;23;20025;-81
2021/04/01 10:19:34;;;;;;;9.17;1.30;;;14.40;71.50;;;;;;6191663;23;20068;-78
2021/04/01 10:22:00;;;;;;;2.35;0.50;;;15.20;74.70;;;;;;6191383;23;20219;-77
2021/04/01 10:24:32;;;;;;;7.85;0.50;;;15.30;72.40;;;;;;6191086;23;19998;-79
2021/04/01 10:27:13;;;;;;;5.47;0.30;;;15.20;72.00;;;;;;6188771;23;20001;-77
2021/04/01 10:32:12;;;;;;;14.02;1.67;;;15.30;73.60;;;;;;6190028;23;20337;-78
2021/04/01 10:34:53;;;;;;;4.15;0.43;;;15.30;73.20;;;;;;6164572;23;20053;-77
2021/04/01 10:37:21;;;;;;;5.70;0.05;;;15.40;72.90;;;;;;6162512;23;20033;-77
2021/04/01 10:39:48;;;;;;;5.85;0.45;;;15.30;73.70;;;;;;6166231;23;20004;-82
2021/04/01 10:42:23;;;;;;;9.07;0.68;;;15.40;73.00;;;;;;6163360;23;20001;-77
2021/04/01 10:45:04;;;;;;;4.55;0.50;;;15.40;70.60;;;;;;6187882;23;20084;-75
2021/04/01 10:47:56;;;;;;;10.10;0.32;;;15.40;73.70;;;;;;6163054;23;20004;-76
2021/04/01 10:50:24;;;;;;;4.32;0.15;;;15.30;72.80;;;;;;6163293;23;19997;-77
2021/04/01 10:52:57;;;;;;;2.53;0.00;;;15.40;74.50;;;;;;6161639;23;20010;-78
2021/04/01 10:55:29;;;;;;;5.88;1.15;;;15.60;74.00;;;;;;6190557;23;20008;-78
2021/04/01 10:58:12;;;;;;;6.65;0.85;;;15.80;73.80;;;;;;6187595;23;20087;-78
2021/04/01 11:00:38;;;;;;;6.38;0.32;;;16.00;71.50;;;;;;6189793;23;20004;-79
2021/04/01 11:03:06;;;;;;;9.43;1.05;;;16.10;71.20;;;;;;6190673;23;20021;-77
2021/04/01 11:05:35;;;;;;;7.25;0.43;;;16.20;72.60;;;;;;6160353;23;20445;-78
2021/04/01 11:08:05;;;;;;;;;;;16.20;70.70;;;;;;6161936;23;20001;-78
2021/04/01 11:10:32;;;;;;;7.60;0.40;;;16.10;70.70;;;;;;6187262;23;20304;-76
2021/04/01 11:12:59;;;;;;;6.25;0.50;;;16.20;71.40;;;;;;6188444;23;20336;-77
2021/04/01 11:15:27;;;;;;;7.18;0.47;;;16.30;70.50;;;;;;6187941;23;20428;-79
2021/04/01 11:18:05;;;;;;;3.20;0.73;;;16.30;70.40;;;;;;6161174;23;20039;-77
2021/04/01 11:20:38;;;;;;;6.35;0.50;;;16.20;70.80;;;;;;6187089;23;20405;-78
2021/04/01 11:23:12;;;;;;;9.82;0.80;;;16.20;69.70;;;;;;6189145;23;20360;-76
2021/04/01 11:25:44;;;;;;;4.50;0.50;;;16.20;70.90;;;;;;6159341;23;20071;-76
2021/04/01 11:28:10;;;;;;;3.22;0.38;;;16.00;70.80;;;;;;6159601;23;20001;-76
2021/04/01 11:30:49;;;;;;;7.32;0.73;;;15.80;71.10;;;;;;6186024;23;20309;-75
2021/04/01 11:33:18;;;;;;;5.50;0.30;;;15.90;71.90;;;;;;6186448;23;20001;-73
2021/04/01 11:35:47;;;;;;;5.35;0.57;;;16.00;73.40;;;;;;6160334;23;20432;-74
2021/04/01 11:38:22;;;;;;;3.92;0.22;;;16.30;73.60;;;;;;6184315;23;20079;-74
2021/04/01 11:41:00;;;;;;;2.40;0.00;;;16.60;70.10;;;;;;6186216;23;20012;-76
2021/04/01 11:43:31;;;;;;;12.50;0.68;;;16.80;67.90;;;;;;6159524;23;20008;-75
2021/04/01 11:45:58;;;;;;;4.07;0.47;;;16.80;68.30;;;;;;6186134;23;20097;-76
2021/04/01 11:48:24;;;;;;;6.47;1.00;;;17.00;67.90;;;;;;6161321;23;19993;-78
2021/04/01 11:50:51;;;;;;;4.03;0.43;;;17.10;66.80;;;;;;6189605;23;20004;-77
2021/04/01 11:53:17;;;;;;;4.60;0.25;;;17.10;66.40;;;;;;6188557;23;20433;-77
2021/04/01 11:55:50;;;;;;;2.05;0.10;;;17.00;64.80;;;;;;6189612;23;20008;-78
2021/04/01 11:58:16;;;;;;;3.95;0.50;;;17.00;66.40;;;;;;6188188;23;20001;-78
2021/04/01 12:00:43;;;;;;;12.35;0.30;;;17.10;65.00;;;;;;6161719;23;20005;-79
2021/04/01 12:03:11;;;;;;;10.55;0.35;;;17.20;64.40;;;;;;6165098;23;20076;-77
2021/04/01 12:05:41;;;;;;;5.05;0.15;;;17.10;65.70;;;;;;6188715;23;20060;-77
2021/04/01 12:08:07;;;;;;;1.60;0.10;;;17.20;64.80;;;;;;6162673;23;20491;-78
2021/04/01 12:10:33;;;;;;;2.08;0.30;;;17.20;65.00;;;;;;6189799;22;20025;-77
2021/04/01 12:15:36;;;;;;;6.28;0.22;;;17.10;64.50;;;;;;6182086;23;20342;-76
2021/04/01 12:18:07;;;;;;;5.93;0.90;;;17.10;63.80;;;;;;6133429;23;20006;-77
2021/04/01 12:20:34;;;;;;;9.95;0.30;;;17.10;62.10;;;;;;6160333;23;20430;-76
2021/04/01 12:23:20;;;;;;;2.28;0.10;;;17.00;64.10;;;;;;6161067;23;20076;-78
2021/04/01 12:25:46;;;;;;;3.65;0.30;;;16.80;64.00;;;;;;6160317;23;20005;-80
2021/04/01 12:28:22;;;;;;;1.65;0.20;;;16.60;63.70;;;;;;6161254;23;20469;-78
2021/04/01 12:30:51;;;;;;;4.97;0.57;;;16.80;65.50;;;;;;6135251;23;20077;-77
2021/04/01 12:33:25;;;;;;;4.22;0.40;;;16.90;63.60;;;;;;6137401;23;20402;-80
2021/04/01 12:36:00;;;;;;;8.15;0.68;;;17.00;63.70;;;;;;6171452;23;20025;-81
2021/04/01 12:38:28;;;;;;;4.13;0.35;;;17.00;64.30;;;;;;6163391;23;20013;-78
2021/04/01 12:40:54;;;;;;;5.45;0.05;;;17.20;62.80;;;;;;6164387;23;20001;-77
2021/04/01 12:43:20;;;;;;;2.38;0.20;;;17.30;60.90;;;;;;6191005;23;19997;-80
2021/04/01 12:45:54;;;;;;;3.15;0.00;;;17.30;60.70;;;;;;6165177;23;20012;-78
2021/04/01 12:48:22;;;;;;;6.15;0.60;;;17.20;62.10;;;;;;6191075;23;19997;-81
2021/04/01 12:50:52;;;;;;;8.40;0.10;;;17.50;61.10;;;;;;6189524;23;20001;-77
2021/04/01 12:53:20;;;;;;;10.70;1.13;;;17.60;62.20;;;;;;6191600;23;20413;-78
2021/04/01 12:55:55;;;;;;;4.00;0.00;;;17.80;59.40;;;;;;6166132;23;20508;-78
2021/04/01 12:58:36;;;;;;;10.00;0.73;;;17.80;61.20;;;;;;6188940;23;20455;-77
2021/04/01 13:01:17;;;;;;;6.93;0.40;;;17.70;60.60;;;;;;6163837;23;20001;-78
2021/04/01 13:03:42;;;;;;;5.05;0.68;;;17.60;59.70;;;;;;6162560;23;20052;-76
2021/04/01 13:06:14;;;;;;;7.15;0.15;;;17.60;59.50;;;;;;6189382;23;20005;-77
2021/04/01 13:08:54;;;;;;;8.45;1.02;;;17.50;60.00;;;;;;6163839;23;20048;-78
2021/04/01 13:11:21;;;;;;;5.88;0.10;;;17.60;59.50;;;;;;6188856;23;20464;-78
2021/04/01 13:13:46;;;;;;;4.40;0.40;;;17.60;59.70;;;;;;6163474;23;20004;-76
2021/04/01 13:16:12;;;;;;;6.93;0.40;;;17.80;60.00;;;;;;6189359;23;20005;-78
2021/04/01 13:18:38;;;;;;;8.02;0.30;;;17.80;60.50;;;;;;6189579;23;20451;-78
2021/04/01 13:21:15;;;;;;;3.78;0.45;;;18.10;59.50;;;;;;6165240;23;20339;-77
2021/04/01 13:23:45;;;;;;;3.80;0.40;;;18.40;56.30;;;;;;6162038;23;20025;-79
2021/04/01 13:26:14;;;;;;;8.45;1.00;;;18.70;57.50;;;;;;6190419;23;20429;-78
2021/04/01 13:28:44;;;;;;;2.40;0.10;;;18.70;56.90;;;;;;6161611;23;20001;-78
2021/04/01 13:34:09;;;;;;;4.22;0.20;;;18.90;53.70;;;;;;6187189;22;20035;-78
2021/04/01 13:36:40;;;;;;;6.97;0.00;;;20.00;52.30;;;;;;6192011;23;20071;-78
2021/04/01 13:39:07;;;;;;;4.15;0.38;;;18.80;53.10;;;;;;6190099;23;20001;-78
2021/04/01 13:41:48;;;;;;;4.97;0.57;;;18.70;52.60;;;;;;6165686;23;20088;-82
2021/04/01 13:44:16;;;;;;;9.05;0.20;;;18.40;53.50;;;;;;6188564;23;20381;-78
2021/04/01 13:46:43;;;;;;;4.60;0.30;;;18.40;53.80;;;;;;6161801;23;20388;-77
2021/04/01 13:49:12;;;;;;;7.07;0.57;;;18.30;55.60;;;;;;6189309;23;20423;-76
2021/04/01 13:51:37;;;;;;;4.07;0.45;;;18.50;56.20;;;;;;6187503;23;20004;-78
2021/04/01 13:57:13;;;;;;;8.77;0.10;;;18.90;53.50;;;;;;6154994;23;20012;-81
2021/04/01 14:00:03;;;;;;;10.90;0.43;;;18.90;52.40;;;;;;6163112;23;20001;-77
2021/04/01 14:10:50;;;;;;;9.20;0.22;;;18.40;54.60;;;;;;6189591;23;20016;-78
2021/04/01 14:13:22;;;;;;;6.93;0.90;;;18.60;55.40;;;;;;6188486;23;20079;-78
2021/04/01 14:15:48;;;;;;;8.40;0.57;;;18.30;54.10;;;;;;6162156;23;20013;-78
2021/04/01 14:18:15;;;;;;;8.18;0.73;;;21.60;55.00;;;;;;6187448;23;20384;-78
2021/04/01 14:20:41;;;;;;;12.93;1.38;;;17.90;56.10;;;;;;6190534;23;19997;-79